Time;durP1;ratioP1;P1;durP2;ratioP2;P2;SDS_P1;SDS_P2;PMS_P1;PMS_P2;Temp;Humidity;BMP_temperature;BMP_pressure;BME280_temperature;BME280_humidity;BME280_pressure;Samples;Min_cycle;Max_cycle;Signal;HPM_P1;HPM_P2
2021/10/08 00:01:31;;;;;;;181.20;24.17;;;6.10;99.90;;;;;;5105424;28;20051;-45
2021/10/08 00:03:57;;;;;;;128.75;21.20;;;6.00;99.90;;;;;;5091291;28;20086;-45
2021/10/08 00:06:24;;;;;;;130.45;21.05;;;6.00;99.90;;;;;;5086186;28;20381;-45
2021/10/08 00:08:50;;;;;;;179.45;24.75;;;6.00;99.90;;;;;;5110769;28;20047;-45
2021/10/08 00:11:16;;;;;;;102.20;20.80;;;6.00;99.90;;;;;;5105224;28;20483;-46
2021/10/08 00:13:43;;;;;;;162.75;23.80;;;6.00;99.90;;;;;;5108909;28;20055;-45
2021/10/08 00:16:09;;;;;;;113.78;19.45;;;6.00;99.90;;;;;;5110110;28;20052;-44
2021/10/08 00:18:36;;;;;;;133.48;21.77;;;6.10;99.90;;;;;;5093018;28;20047;-46
2021/10/08 00:21:06;;;;;;;125.93;21.95;;;6.10;99.90;;;;;;5107435;28;20059;-47
2021/10/08 00:23:33;;;;;;;99.35;19.10;;;6.00;99.90;;;;;;5099848;28;20048;-47
2021/10/08 00:26:00;;;;;;;124.30;20.45;;;6.10;99.90;;;;;;5110635;28;20162;-46
2021/10/08 00:28:26;;;;;;;126.47;19.63;;;6.10;99.90;;;;;;5109503;28;20050;-46
2021/10/08 00:30:52;;;;;;;82.13;17.92;;;6.10;99.90;;;;;;5111063;28;20051;-45
2021/10/08 00:33:18;;;;;;;103.07;18.25;;;6.10;99.90;;;;;;5107852;28;20077;-46
2021/10/08 00:35:45;;;;;;;148.80;20.15;;;6.10;99.90;;;;;;5088484;28;20051;-48
2021/10/08 00:38:11;;;;;;;204.93;24.35;;;6.10;99.90;;;;;;5092852;28;20069;-46
2021/10/08 00:40:41;;;;;;;139.98;19.13;;;6.10;99.90;;;;;;5109988;28;20043;-45
2021/10/08 00:43:08;;;;;;;173.68;21.75;;;6.00;99.90;;;;;;5111336;28;20412;-46
2021/10/08 00:45:35;;;;;;;184.55;22.17;;;6.00;99.90;;;;;;5108831;28;20423;-44
2021/10/08 00:48:07;;;;;;;188.23;22.25;;;5.90;99.90;;;;;;5106181;28;20134;-47
2021/10/08 00:50:48;;;;;;;198.98;22.88;;;6.00;99.90;;;;;;5108668;28;20459;-46
2021/10/08 00:53:17;;;;;;;212.95;24.25;;;5.90;99.90;;;;;;5090231;28;20101;-45
2021/10/08 00:55:49;;;;;;;200.13;21.90;;;5.80;99.90;;;;;;5101756;28;20052;-45
2021/10/08 00:58:18;;;;;;;235.32;26.42;;;5.80;99.90;;;;;;5106813;28;20492;-46
2021/10/08 01:00:48;;;;;;;138.82;21.48;;;5.80;99.90;;;;;;5106231;28;20051;-45
2021/10/08 01:03:17;;;;;;;140.80;20.60;;;5.80;99.90;;;;;;5090504;28;20415;-48
2021/10/08 01:05:46;;;;;;;115.90;16.35;;;5.80;99.90;;;;;;5105660;28;20055;-46
2021/10/08 01:08:15;;;;;;;102.95;17.63;;;5.70;99.90;;;;;;5083290;28;20083;-48
2021/10/08 01:10:44;;;;;;;111.07;19.33;;;5.70;99.90;;;;;;5091079;28;20116;-45
2021/10/08 01:13:15;;;;;;;106.82;18.52;;;5.80;99.90;;;;;;5091648;28;20176;-45
2021/10/08 01:15:44;;;;;;;83.70;16.90;;;5.80;99.90;;;;;;5072951;28;20104;-46
2021/10/08 01:18:11;;;;;;;66.78;15.10;;;5.80;99.90;;;;;;5098386;28;20504;-47
2021/10/08 01:20:37;;;;;;;123.22;18.63;;;5.70;99.90;;;;;;5089678;28;20149;-44
2021/10/08 01:23:18;;;;;;;97.80;18.08;;;5.70;99.90;;;;;;5079649;28;20059;-46
2021/10/08 01:25:52;;;;;;;100.35;16.60;;;5.60;99.90;;;;;;5105637;28;20051;-46
2021/10/08 01:28:24;;;;;;;109.60;19.27;;;5.60;99.90;;;;;;5108828;28;20478;-46
2021/10/08 01:30:51;;;;;;;70.25;15.38;;;5.60;99.90;;;;;;5091096;28;20058;-46
2021/10/08 01:33:23;;;;;;;83.68;14.82;;;5.60;99.90;;;;;;5109839;28;20051;-48
2021/10/08 01:35:53;;;;;;;64.75;14.38;;;5.50;99.90;;;;;;5078530;28;20106;-46
2021/10/08 01:38:21;;;;;;;84.60;15.38;;;5.50;99.90;;;;;;5091233;28;20039;-46
2021/10/08 01:40:48;;;;;;;91.80;17.80;;;5.60;99.90;;;;;;5090338;28;20062;-45
2021/10/08 01:43:18;;;;;;;80.43;16.23;;;5.50;99.90;;;;;;5070825;28;20054;-46
2021/10/08 01:45:46;;;;;;;66.22;14.35;;;5.50;99.90;;;;;;5090785;28;20048;-45
2021/10/08 01:48:17;;;;;;;107.32;16.38;;;5.50;99.90;;;;;;5090151;28;20056;-46
2021/10/08 01:50:43;;;;;;;91.80;18.40;;;5.50;99.90;;;;;;5070984;28;20444;-47
2021/10/08 01:53:10;;;;;;;102.72;17.17;;;5.50;99.90;;;;;;5105443;28;20507;-45
2021/10/08 01:55:41;;;;;;;98.00;16.83;;;5.50;99.90;;;;;;5087999;28;20151;-47
2021/10/08 01:58:07;;;;;;;105.13;17.83;;;5.40;99.90;;;;;;5105021;28;20092;-45
2021/10/08 02:00:38;;;;;;;81.40;17.77;;;5.50;99.90;;;;;;5070856;28;20051;-47
2021/10/08 02:03:27;;;;;;;60.42;15.05;;;5.50;99.90;;;;;;5103362;28;20130;-45
2021/10/08 02:05:57;;;;;;;64.50;16.08;;;5.50;99.90;;;;;;5073495;28;20059;-45
2021/10/08 02:08:25;;;;;;;51.33;15.95;;;5.50;99.90;;;;;;5102582;28;20047;-45
2021/10/08 02:10:54;;;;;;;112.65;18.80;;;5.60;99.90;;;;;;5086174;28;20642;-44
2021/10/08 02:13:23;;;;;;;130.32;20.80;;;5.50;99.90;;;;;;5073802;28;20086;-46
2021/10/08 02:15:52;;;;;;;132.18;22.52;;;5.50;99.90;;;;;;5091024;28;20118;-48
2021/10/08 02:18:19;;;;;;;164.85;20.83;;;5.60;99.90;;;;;;5088274;28;20059;-45
2021/10/08 02:20:47;;;;;;;168.07;20.75;;;5.50;99.90;;;;;;5074295;28;20070;-47
2021/10/08 02:23:13;;;;;;;209.45;25.35;;;5.50;99.90;;;;;;5086524;28;20097;-45
2021/10/08 02:25:42;;;;;;;179.60;24.40;;;5.50;99.90;;;;;;5048402;28;20059;-46
2021/10/08 02:28:09;;;;;;;205.93;24.73;;;5.50;99.90;;;;;;5102348;28;20051;-45
2021/10/08 02:30:37;;;;;;;272.17;27.52;;;5.50;99.90;;;;;;5090558;28;20069;-45
2021/10/08 02:33:04;;;;;;;260.77;28.85;;;5.50;99.90;;;;;;5088653;28;20055;-45
2021/10/08 02:35:33;;;;;;;198.98;23.73;;;5.50;99.90;;;;;;5091037;28;20499;-44
2021/10/08 02:37:59;;;;;;;226.30;24.80;;;5.50;99.90;;;;;;5099011;28;20052;-46
2021/10/08 02:40:28;;;;;;;261.58;29.13;;;5.60;99.90;;;;;;5090225;28;20047;-45
2021/10/08 02:42:54;;;;;;;192.02;23.92;;;5.50;99.90;;;;;;5073152;28;20134;-47
2021/10/08 02:45:23;;;;;;;147.95;20.95;;;5.50;99.90;;;;;;5089658;28;20097;-45
2021/10/08 02:47:49;;;;;;;101.35;18.52;;;5.60;99.90;;;;;;5087369;28;20040;-45
2021/10/08 02:50:16;;;;;;;54.17;15.57;;;5.50;99.90;;;;;;5088829;28;20103;-45
2021/10/08 02:52:43;;;;;;;43.38;14.43;;;5.60;99.90;;;;;;5089912;28;20069;-44
2021/10/08 02:55:11;;;;;;;48.80;15.70;;;5.60;99.90;;;;;;5089959;28;20055;-44
2021/10/08 02:57:39;;;;;;;81.53;18.05;;;5.60;99.90;;;;;;5105545;28;20181;-45
2021/10/08 03:00:08;;;;;;;107.93;18.08;;;5.60;99.90;;;;;;5090430;28;20062;-47
2021/10/08 03:02:37;;;;;;;111.63;18.33;;;5.60;99.90;;;;;;5089827;28;20074;-46
2021/10/08 03:05:05;;;;;;;116.82;18.90;;;5.60;99.90;;;;;;5064211;28;20121;-45
2021/10/08 03:07:34;;;;;;;195.38;24.10;;;5.60;99.90;;;;;;5091982;28;20753;-45
2021/10/08 03:10:03;;;;;;;126.65;20.15;;;5.60;99.90;;;;;;5086072;28;20051;-46
2021/10/08 03:12:33;;;;;;;219.35;25.10;;;5.60;99.90;;;;;;5085855;28;20215;-44
2021/10/08 03:15:00;;;;;;;149.65;20.98;;;5.60;99.90;;;;;;5088353;28;20611;-45
2021/10/08 03:17:29;;;;;;;243.73;26.38;;;5.60;99.90;;;;;;5086429;28;20455;-45
2021/10/08 03:19:58;;;;;;;222.38;26.10;;;5.60;99.90;;;;;;5081498;28;20052;-45
2021/10/08 03:22:24;;;;;;;217.65;25.60;;;5.60;99.90;;;;;;5087276;28;20154;-47
2021/10/08 03:24:52;;;;;;;231.27;26.98;;;5.50;99.90;;;;;;5090888;28;20056;-44
2021/10/08 03:27:18;;;;;;;193.98;23.58;;;5.50;99.90;;;;;;5075853;28;20050;-46
2021/10/08 03:29:44;;;;;;;204.60;23.48;;;5.50;99.90;;;;;;5091573;28;20135;-47
2021/10/08 03:32:10;;;;;;;191.90;21.88;;;5.50;99.90;;;;;;5086983;28;20059;-45
2021/10/08 03:34:42;;;;;;;184.25;23.25;;;5.50;99.90;;;;;;5089981;28;20059;-44
2021/10/08 03:37:12;;;;;;;149.80;21.25;;;5.40;99.90;;;;;;5084565;28;20058;-44
2021/10/08 03:39:41;;;;;;;89.97;15.77;;;5.50;99.90;;;;;;5091753;28;20063;-45
2021/10/08 03:42:12;;;;;;;90.95;16.50;;;5.40;99.90;;;;;;5089099;28;20048;-45
2021/10/08 03:44:39;;;;;;;118.03;19.25;;;5.40;99.90;;;;;;5089385;28;20055;-45
2021/10/08 03:47:19;;;;;;;105.63;18.20;;;5.40;99.90;;;;;;5088789;28;20052;-44
2021/10/08 03:49:45;;;;;;;122.57;18.60;;;5.40;99.90;;;;;;5097586;28;20052;-45
2021/10/08 03:52:14;;;;;;;130.98;20.00;;;5.40;99.90;;;;;;5084388;28;20051;-45
2021/10/08 03:54:40;;;;;;;110.93;19.30;;;5.30;99.90;;;;;;5071467;28;20136;-45
2021/10/08 03:57:11;;;;;;;90.68;18.67;;;5.30;99.90;;;;;;5084569;28;20083;-48
2021/10/08 03:59:38;;;;;;;154.27;22.83;;;5.30;99.90;;;;;;5091464;28;20048;-46
2021/10/08 04:02:04;;;;;;;92.50;19.05;;;5.30;99.90;;;;;;5089250;28;20515;-45
2021/10/08 04:04:31;;;;;;;95.25;18.70;;;5.30;99.90;;;;;;5103942;28;20071;-46
2021/10/08 04:06:58;;;;;;;70.05;17.35;;;5.40;99.90;;;;;;5089105;28;20586;-45
2021/10/08 04:09:27;;;;;;;57.72;16.45;;;5.40;99.90;;;;;;5085960;28;20109;-46
2021/10/08 04:11:53;;;;;;;95.90;17.48;;;5.40;99.90;;;;;;5091119;28;20052;-47
2021/10/08 04:14:19;;;;;;;106.45;20.02;;;5.30;99.90;;;;;;5089422;28;20150;-44
2021/10/08 04:16:50;;;;;;;103.07;18.48;;;5.30;99.90;;;;;;5089610;28;20075;-46
2021/10/08 04:19:16;;;;;;;70.57;17.45;;;5.20;99.90;;;;;;5090646;28;20131;-47
2021/10/08 04:21:46;;;;;;;55.45;16.02;;;5.20;99.90;;;;;;5085002;28;20045;-44
2021/10/08 04:24:14;;;;;;;53.03;16.77;;;5.20;99.90;;;;;;5073585;28;20066;-46
2021/10/08 04:26:40;;;;;;;72.75;17.70;;;5.30;99.90;;;;;;5087064;28;20055;-45
2021/10/08 04:29:07;;;;;;;76.20;17.45;;;5.20;99.90;;;;;;5088962;28;20052;-46
2021/10/08 04:31:39;;;;;;;51.90;15.45;;;5.20;99.90;;;;;;5088878;28;20067;-48
2021/10/08 04:34:05;;;;;;;55.22;15.93;;;5.20;99.90;;;;;;5088516;28;20056;-45
2021/10/08 04:36:36;;;;;;;29.38;13.50;;;5.10;99.90;;;;;;5092417;28;20101;-48
2021/10/08 04:39:02;;;;;;;39.67;15.07;;;5.10;99.90;;;;;;5081237;28;20516;-45
2021/10/08 04:41:29;;;;;;;47.53;16.33;;;5.00;99.90;;;;;;5071966;28;20052;-44
2021/10/08 04:43:56;;;;;;;28.00;14.25;;;5.00;99.90;;;;;;5063646;28;20067;-46
2021/10/08 04:46:25;;;;;;;43.60;15.27;;;5.00;99.90;;;;;;5088476;28;20062;-45
2021/10/08 04:48:55;;;;;;;39.42;14.60;;;5.00;99.90;;;;;;5080333;28;20052;-45
2021/10/08 04:51:24;;;;;;;34.67;14.32;;;5.00;99.90;;;;;;5078947;28;20449;-46
2021/10/08 04:53:51;;;;;;;33.17;14.18;;;5.00;99.90;;;;;;5104437;28;20059;-45
2021/10/08 04:56:17;;;;;;;33.22;13.20;;;5.00;99.90;;;;;;5070316;28;20131;-45
2021/10/08 04:58:43;;;;;;;33.15;13.75;;;5.00;99.90;;;;;;5070772;28;20060;-45
2021/10/08 05:01:12;;;;;;;78.70;15.75;;;5.00;99.90;;;;;;5097189;28;20063;-46
2021/10/08 05:03:39;;;;;;;44.47;16.02;;;4.90;99.90;;;;;;5091828;28;20071;-46
2021/10/08 05:06:08;;;;;;;86.15;19.08;;;5.00;99.90;;;;;;5068694;28;20517;-45
2021/10/08 05:08:41;;;;;;;83.78;17.88;;;4.90;99.90;;;;;;5076025;28;20060;-46
2021/10/08 05:11:12;;;;;;;126.40;19.60;;;4.90;99.90;;;;;;5067417;28;20052;-46
2021/10/08 05:13:38;;;;;;;84.53;16.33;;;4.90;99.90;;;;;;5073873;28;20071;-47
2021/10/08 05:16:07;;;;;;;66.35;17.05;;;4.90;99.90;;;;;;5080000;28;20059;-44
2021/10/08 05:18:33;;;;;;;64.28;17.10;;;4.90;99.90;;;;;;5088337;28;20059;-45
2021/10/08 05:21:02;;;;;;;60.15;17.17;;;4.90;99.90;;;;;;5087625;28;20132;-45
2021/10/08 05:23:31;;;;;;;70.57;17.27;;;4.90;99.90;;;;;;5089971;28;20055;-47
2021/10/08 05:25:57;;;;;;;47.55;16.30;;;4.90;99.90;;;;;;5088502;28;20052;-44
2021/10/08 05:28:26;;;;;;;69.82;17.45;;;4.90;99.90;;;;;;5085583;28;20048;-46
2021/10/08 05:30:55;;;;;;;61.08;15.10;;;4.90;99.90;;;;;;5079919;28;20052;-45
2021/10/08 05:33:25;;;;;;;67.43;17.45;;;4.90;99.90;;;;;;5070844;28;20145;-45
2021/10/08 05:35:51;;;;;;;82.85;17.70;;;4.90;99.90;;;;;;5081882;28;20463;-47
2021/10/08 05:38:18;;;;;;;63.72;16.42;;;4.90;99.90;;;;;;5087499;28;20087;-44
2021/10/08 05:40:47;;;;;;;41.42;16.33;;;4.90;99.90;;;;;;5085562;28;20117;-45
2021/10/08 05:43:15;;;;;;;52.88;16.00;;;4.90;99.90;;;;;;5068559;28;20103;-47
2021/10/08 05:45:46;;;;;;;47.20;16.65;;;4.90;99.90;;;;;;5069535;28;20049;-44
2021/10/08 05:48:12;;;;;;;42.58;16.80;;;4.90;99.90;;;;;;5087272;28;20168;-45
2021/10/08 05:50:39;;;;;;;67.63;18.40;;;4.90;99.90;;;;;;5084349;28;20484;-44
2021/10/08 05:53:08;;;;;;;53.47;18.13;;;5.00;99.90;;;;;;5080293;28;20058;-45
2021/10/08 05:55:35;;;;;;;81.13;17.77;;;5.00;99.90;;;;;;5087207;28;20577;-45
2021/10/08 05:58:08;;;;;;;48.70;17.20;;;5.00;99.90;;;;;;5086324;28;20051;-46
2021/10/08 06:00:35;;;;;;;;;;;5.00;99.90;;;;;;5087025;28;20117;-45
2021/10/08 06:03:09;;;;;;;57.17;16.77;;;5.10;99.90;;;;;;5087114;28;19946;-45
2021/10/08 06:05:36;;;;;;;55.50;18.27;;;5.20;99.90;;;;;;5095898;28;20059;-44
2021/10/08 06:08:04;;;;;;;53.58;15.70;;;5.20;99.90;;;;;;5076104;28;20404;-44
2021/10/08 06:10:30;;;;;;;93.05;18.17;;;5.30;99.90;;;;;;5085236;28;20087;-43
2021/10/08 06:12:56;;;;;;;132.65;20.95;;;5.30;99.90;;;;;;5089254;28;20066;-44
2021/10/08 06:15:22;;;;;;;184.98;24.75;;;5.40;99.90;;;;;;5094451;28;20055;-45
2021/10/08 06:17:50;;;;;;;205.70;25.38;;;5.40;99.90;;;;;;5084481;28;20054;-42
2021/10/08 06:20:16;;;;;;;166.10;23.00;;;5.50;99.90;;;;;;5074679;28;20052;-41
2021/10/08 06:22:46;;;;;;;97.13;17.17;;;5.50;99.90;;;;;;5087039;28;20061;-43
2021/10/08 06:25:16;;;;;;;128.65;20.90;;;5.60;99.90;;;;;;5089622;28;20066;-45
2021/10/08 06:27:43;;;;;;;122.13;20.48;;;5.80;99.90;;;;;;5089733;28;20085;-45
2021/10/08 06:30:09;;;;;;;156.02;22.50;;;5.80;99.90;;;;;;5084151;28;20093;-45
2021/10/08 06:32:38;;;;;;;155.13;21.67;;;5.80;99.90;;;;;;5089865;28;20050;-43
2021/10/08 06:35:04;;;;;;;90.25;19.38;;;5.80;99.90;;;;;;5090459;28;20082;-43
2021/10/08 06:37:32;;;;;;;134.63;20.27;;;5.70;99.90;;;;;;5090002;28;20051;-44
2021/10/08 06:39:59;;;;;;;88.05;19.25;;;5.80;99.90;;;;;;5090049;28;20534;-43
2021/10/08 06:42:26;;;;;;;116.32;20.02;;;5.90;99.90;;;;;;5076415;28;20067;-43
2021/10/08 06:45:03;;;;;;;101.28;17.25;;;5.90;99.90;;;;;;5089536;28;20063;-43
2021/10/08 06:47:29;;;;;;;92.20;18.08;;;6.00;99.90;;;;;;5086298;28;20052;-45
2021/10/08 06:49:56;;;;;;;71.90;16.83;;;6.10;99.90;;;;;;5072138;28;20060;-42
2021/10/08 06:52:22;;;;;;;75.65;17.55;;;6.20;99.90;;;;;;5090267;28;20055;-46
2021/10/08 06:54:52;;;;;;;90.28;19.17;;;6.20;99.90;;;;;;5090371;28;20052;-43
2021/10/08 06:57:18;;;;;;;118.70;19.25;;;6.20;99.90;;;;;;5089510;28;20102;-44
2021/10/08 06:59:44;;;;;;;75.10;18.17;;;6.30;99.90;;;;;;5094149;28;20051;-43
2021/10/08 07:02:10;;;;;;;80.68;18.65;;;6.40;99.90;;;;;;5089373;28;20056;-43
2021/10/08 07:04:38;;;;;;;126.05;19.92;;;6.40;99.90;;;;;;5087939;28;20058;-43
2021/10/08 07:07:04;;;;;;;135.07;20.83;;;6.40;99.90;;;;;;5086725;28;20436;-44
2021/10/08 07:09:44;;;;;;;111.13;21.58;;;6.60;99.90;;;;;;5110586;28;20135;-44
2021/10/08 07:12:11;;;;;;;83.05;16.08;;;6.60;99.90;;;;;;5073809;28;20116;-43
2021/10/08 07:14:37;;;;;;;53.85;17.70;;;6.80;99.90;;;;;;5096141;28;20055;-43
2021/10/08 07:17:03;;;;;;;87.65;18.77;;;6.90;99.90;;;;;;5092031;28;20066;-44
2021/10/08 07:19:30;;;;;;;68.07;17.77;;;7.00;99.90;;;;;;5092206;28;20051;-44
2021/10/08 07:21:56;;;;;;;58.65;16.00;;;7.10;99.90;;;;;;5111018;28;20059;-47
2021/10/08 07:24:22;;;;;;;57.05;16.73;;;7.20;99.90;;;;;;5105005;28;20048;-43
2021/10/08 07:26:49;;;;;;;32.17;14.80;;;7.40;99.90;;;;;;5105834;28;20050;-45
2021/10/08 07:29:15;;;;;;;41.72;15.05;;;7.60;99.90;;;;;;5103533;28;20465;-48
2021/10/08 07:31:42;;;;;;;33.03;14.18;;;7.70;99.90;;;;;;5104061;28;20048;-45
2021/10/08 07:34:08;;;;;;;57.10;15.32;;;7.90;99.90;;;;;;5093154;28;20510;-44
2021/10/08 07:36:34;;;;;;;34.28;15.65;;;8.00;99.90;;;;;;5092536;28;20058;-46
2021/10/08 07:39:01;;;;;;;41.05;15.18;;;8.20;99.90;;;;;;5109137;28;20076;-43
2021/10/08 07:41:30;;;;;;;36.15;14.30;;;8.40;99.90;;;;;;5112662;28;20066;-44
2021/10/08 07:43:56;;;;;;;50.28;14.93;;;8.60;99.90;;;;;;5103944;28;20068;-43
2021/10/08 07:46:24;;;;;;;90.85;15.55;;;8.80;99.90;;;;;;5108843;28;20486;-43
2021/10/08 07:48:50;;;;;;;44.67;13.93;;;8.90;99.90;;;;;;5102440;28;20055;-44
2021/10/08 07:51:16;;;;;;;63.53;14.73;;;9.10;99.90;;;;;;5111793;28;20563;-45
2021/10/08 07:53:42;;;;;;;49.10;13.55;;;9.30;99.90;;;;;;5111416;28;20054;-45
2021/10/08 07:56:08;;;;;;;49.90;13.65;;;9.40;99.90;;;;;;5111271;28;20086;-46
2021/10/08 07:58:34;;;;;;;40.17;13.80;;;9.60;99.90;;;;;;5092828;28;20055;-43
2021/10/08 08:01:01;;;;;;;30.13;12.80;;;9.80;99.90;;;;;;5110233;28;20056;-44
2021/10/08 08:03:28;;;;;;;31.83;12.55;;;10.20;99.90;;;;;;5111377;28;20384;-44
2021/10/08 08:05:55;;;;;;;39.65;14.32;;;10.20;99.90;;;;;;5104518;28;20523;-45
2021/10/08 08:08:21;;;;;;;30.98;12.77;;;10.30;99.90;;;;;;5090644;28;20074;-44
2021/10/08 08:10:47;;;;;;;20.38;12.73;;;10.70;99.90;;;;;;5105190;28;20055;-48
2021/10/08 08:13:13;;;;;;;15.00;12.45;;;11.10;99.90;;;;;;5092180;28;20553;-44
2021/10/08 08:15:40;;;;;;;19.23;12.95;;;11.40;99.90;;;;;;5111334;28;20051;-45
2021/10/08 08:18:06;;;;;;;18.45;13.93;;;11.70;99.90;;;;;;5110759;28;20567;-46
2021/10/08 08:20:32;;;;;;;18.05;13.23;;;11.60;99.90;;;;;;5111035;28;20066;-44
2021/10/08 08:22:58;;;;;;;16.85;13.25;;;11.70;99.90;;;;;;5109647;28;20526;-45
2021/10/08 08:25:24;;;;;;;15.15;12.27;;;12.00;99.90;;;;;;5110528;28;20047;-46
2021/10/08 08:27:50;;;;;;;14.73;12.52;;;12.20;99.90;;;;;;5111169;28;20051;-44
2021/10/08 08:30:16;;;;;;;17.13;13.73;;;12.50;99.90;;;;;;5110858;28;20060;-44
2021/10/08 08:32:42;;;;;;;18.17;13.38;;;12.50;99.90;;;;;;5111011;28;20082;-48
2021/10/08 08:35:09;;;;;;;15.45;13.90;;;12.90;99.90;;;;;;5092455;28;20821;-45
2021/10/08 08:37:35;;;;;;;13.60;12.25;;;13.40;99.90;;;;;;5110525;28;20130;-45
2021/10/08 08:40:05;;;;;;;14.90;13.35;;;13.70;99.90;;;;;;5103545;28;20064;-46
2021/10/08 08:42:32;;;;;;;14.85;13.43;;;14.40;99.90;;;;;;5090474;28;20130;-45
2021/10/08 08:44:58;;;;;;;13.60;12.20;;;14.80;99.90;;;;;;5107453;28;20126;-45
2021/10/08 08:47:25;;;;;;;14.70;13.10;;;15.50;99.90;;;;;;5110253;28;20592;-45
2021/10/08 08:49:51;;;;;;;15.45;13.10;;;15.90;99.90;;;;;;5107659;28;20043;-47
2021/10/08 08:52:21;;;;;;;14.55;12.35;;;16.40;99.90;;;;;;5107817;28;20051;-45
2021/10/08 08:54:48;;;;;;;13.20;11.82;;;16.90;99.90;;;;;;5105904;28;20036;-47
2021/10/08 08:57:19;;;;;;;14.40;11.85;;;17.30;99.90;;;;;;5103509;28;20054;-47
2021/10/08 09:00:08;;;;;;;13.15;11.73;;;17.70;99.90;;;;;;5109480;28;20180;-45
2021/10/08 09:02:37;;;;;;;12.55;11.25;;;18.20;99.90;;;;;;5105290;28;20048;-44
2021/10/08 09:05:04;;;;;;;13.02;11.63;;;18.70;99.90;;;;;;5110224;28;20067;-45
2021/10/08 09:07:35;;;;;;;13.48;12.07;;;19.10;99.90;;;;;;5109712;28;20047;-48
2021/10/08 09:10:13;;;;;;;14.32;12.38;;;19.40;99.90;;;;;;5074172;28;20059;-46
2021/10/08 09:12:40;;;;;;;14.18;12.75;;;19.60;99.90;;;;;;5110006;28;20072;-44
2021/10/08 09:15:08;;;;;;;18.05;13.02;;;20.10;99.90;;;;;;5090677;28;20051;-44
2021/10/08 09:17:37;;;;;;;13.23;11.52;;;20.50;99.90;;;;;;5097925;28;20083;-43
2021/10/08 09:20:10;;;;;;;13.15;11.40;;;20.80;99.90;;;;;;5107110;28;20168;-47
2021/10/08 09:22:36;;;;;;;12.70;11.40;;;21.00;98.30;;;;;;5107540;28;20056;-44
2021/10/08 09:25:17;;;;;;;12.73;11.48;;;21.30;99.90;;;;;;5106410;28;20701;-47
2021/10/08 09:27:46;;;;;;;13.55;12.13;;;21.50;95.80;;;;;;5107629;28;20053;-45
2021/10/08 09:30:13;;;;;;;13.48;11.65;;;21.70;98.40;;;;;;5089409;28;20088;-46
2021/10/08 09:32:54;;;;;;;13.25;11.75;;;22.20;97.20;;;;;;5098553;28;20574;-45
2021/10/08 09:35:26;;;;;;;13.40;11.93;;;22.30;82.00;;;;;;5099332;28;20822;-44
2021/10/08 09:38:04;;;;;;;15.75;13.07;;;22.50;87.60;;;;;;5080450;28;20480;-49
2021/10/08 09:40:42;;;;;;;14.95;12.60;;;22.50;89.40;;;;;;5102620;28;20065;-45
2021/10/08 09:43:27;;;;;;;12.75;11.52;;;22.90;81.10;;;;;;5095358;28;20062;-44
2021/10/08 09:45:58;;;;;;;14.88;11.45;;;23.00;78.10;;;;;;5108039;27;20082;-45
2021/10/08 09:48:41;;;;;;;13.07;11.77;;;23.30;77.20;;;;;;5087620;28;20051;-45
2021/10/08 09:51:16;;;;;;;13.93;12.52;;;23.20;73.80;;;;;;5099974;28;20051;-46
2021/10/08 09:53:48;;;;;;;12.13;10.93;;;23.30;69.00;;;;;;5102045;28;20083;-47
2021/10/08 09:56:38;;;;;;;12.43;11.32;;;23.20;73.10;;;;;;5091453;28;20067;-46
2021/10/08 09:59:06;;;;;;;12.50;11.30;;;23.40;67.80;;;;;;5102895;28;20054;-46
2021/10/08 10:01:34;;;;;;;14.80;11.95;;;23.80;70.10;;;;;;5092690;28;20082;-46
2021/10/08 10:04:03;;;;;;;12.60;11.38;;;23.80;70.20;;;;;;5089316;28;20052;-48
2021/10/08 10:06:30;;;;;;;12.85;11.48;;;24.00;69.30;;;;;;5089704;28;20052;-45
2021/10/08 10:08:56;;;;;;;11.23;10.18;;;24.50;67.10;;;;;;5104107;28;20551;-47
2021/10/08 10:11:24;;;;;;;12.27;11.07;;;24.20;65.00;;;;;;5099290;28;20122;-47
2021/10/08 10:13:55;;;;;;;12.27;11.07;;;24.30;63.30;;;;;;5096924;28;20049;-48
2021/10/08 10:16:22;;;;;;;13.02;11.82;;;24.20;63.00;;;;;;5102230;28;20135;-48
2021/10/08 10:18:52;;;;;;;12.35;11.10;;;24.20;64.30;;;;;;5101183;28;20410;-46
2021/10/08 10:21:28;;;;;;;12.20;11.00;;;24.00;62.60;;;;;;5102229;28;20043;-47
2021/10/08 10:23:57;;;;;;;11.77;10.57;;;24.40;61.50;;;;;;5100743;28;20044;-51
2021/10/08 10:26:30;;;;;;;12.00;10.90;;;24.70;62.20;;;;;;5101195;28;20058;-46
2021/10/08 10:28:59;;;;;;;11.65;10.55;;;24.70;62.10;;;;;;5112914;28;20059;-47
2021/10/08 10:31:26;;;;;;;11.13;9.98;;;25.00;61.20;;;;;;5099563;28;20127;-46
2021/10/08 10:33:58;;;;;;;11.07;10.07;;;24.80;60.10;;;;;;5088503;28;20194;-48
2021/10/08 10:36:29;;;;;;;10.63;9.60;;;25.00;58.90;;;;;;5088264;28;20088;-48
2021/10/08 10:39:16;;;;;;;11.38;10.27;;;25.20;57.00;;;;;;5100303;28;20067;-46
2021/10/08 10:41:44;;;;;;;10.93;9.82;;;25.40;56.80;;;;;;5095860;28;20116;-48
2021/10/08 10:44:27;;;;;;;10.10;9.07;;;25.70;57.00;;;;;;5081734;28;20052;-49
2021/10/08 10:47:17;;;;;;;9.07;8.18;;;25.70;56.90;;;;;;5088263;28;20138;-47
2021/10/08 10:49:55;;;;;;;8.77;7.68;;;25.70;53.90;;;;;;5098933;28;20150;-48
2021/10/08 10:52:24;;;;;;;7.80;7.07;;;25.70;53.90;;;;;;5099717;28;20059;-47
2021/10/08 10:54:51;;;;;;;8.50;7.63;;;25.40;53.80;;;;;;5103874;28;20416;-50
2021/10/08 10:57:22;;;;;;;8.90;8.13;;;25.50;54.70;;;;;;5093317;28;20048;-46
2021/10/08 10:59:49;;;;;;;8.00;7.20;;;25.70;53.90;;;;;;5080831;28;20049;-50
2021/10/08 11:02:24;;;;;;;8.00;7.20;;;25.60;53.50;;;;;;5077298;28;20054;-47
2021/10/08 11:05:22;;;;;;;8.63;7.82;;;25.80;52.40;;;;;;5075237;28;20109;-50
2021/10/08 11:08:12;;;;;;;7.85;7.05;;;26.20;51.70;;;;;;5066322;28;20056;-46
2021/10/08 11:11:00;;;;;;;8.23;6.78;;;25.80;51.10;;;;;;5061194;28;20056;-46
2021/10/08 11:13:33;;;;;;;7.53;6.47;;;25.90;53.40;;;;;;5078518;28;20058;-46
2021/10/08 11:16:06;;;;;;;7.70;6.60;;;26.30;50.40;;;;;;5087698;28;20079;-49
2021/10/08 11:18:50;;;;;;;8.45;6.35;;;26.30;49.30;;;;;;5087497;28;20130;-50
2021/10/08 11:21:25;;;;;;;6.85;6.25;;;26.50;50.30;;;;;;5085364;28;20061;-48
2021/10/08 11:23:51;;;;;;;7.15;6.55;;;26.70;49.70;;;;;;5087177;28;20522;-50
2021/10/08 11:26:18;;;;;;;6.88;6.10;;;26.70;50.90;;;;;;5086460;28;20059;-49
2021/10/08 11:28:46;;;;;;;6.40;5.47;;;27.00;49.00;;;;;;5086840;28;20504;-47
2021/10/08 11:31:20;;;;;;;6.50;5.90;;;26.80;50.20;;;;;;5086962;28;20067;-49
2021/10/08 11:33:50;;;;;;;6.88;5.90;;;26.60;48.90;;;;;;5084039;28;20165;-48
2021/10/08 11:36:20;;;;;;;7.18;5.85;;;26.60;49.50;;;;;;5087952;28;20048;-46
2021/10/08 11:38:48;;;;;;;6.15;5.43;;;26.90;49.00;;;;;;5090166;28;20606;-50
2021/10/08 11:41:18;;;;;;;7.85;7.10;;;26.60;47.70;;;;;;5090816;28;20408;-53
2021/10/08 11:43:46;;;;;;;7.75;7.05;;;26.00;47.60;;;;;;5090597;28;20162;-50
2021/10/08 11:46:33;;;;;;;8.18;7.25;;;26.00;48.90;;;;;;5088790;28;20059;-50
2021/10/08 11:49:15;;;;;;;8.55;7.75;;;25.80;49.70;;;;;;5087808;28;20056;-50
2021/10/08 11:51:45;;;;;;;7.78;6.47;;;26.10;49.50;;;;;;5090306;28;20477;-48
2021/10/08 11:54:20;;;;;;;9.02;8.13;;;26.10;49.80;;;;;;5090663;28;20047;-48
2021/10/08 11:57:02;;;;;;;7.30;6.60;;;25.20;50.60;;;;;;5083296;28;20059;-51
2021/10/08 11:59:32;;;;;;;8.07;7.13;;;25.80;49.90;;;;;;5087114;28;20101;-51
2021/10/08 12:02:15;;;;;;;8.32;7.50;;;25.80;50.60;;;;;;5090431;28;20139;-49
2021/10/08 12:05:04;;;;;;;10.07;8.10;;;25.00;49.70;;;;;;5087700;28;20052;-50
2021/10/08 12:07:35;;;;;;;8.38;7.00;;;25.10;50.40;;;;;;5084368;28;20166;-54
2021/10/08 12:10:13;;;;;;;8.65;7.75;;;24.30;50.60;;;;;;5086422;28;20094;-47
2021/10/08 12:12:58;;;;;;;8.98;7.43;;;23.60;53.20;;;;;;5081862;28;20048;-48
2021/10/08 12:15:31;;;;;;;7.97;7.18;;;24.30;54.70;;;;;;5080117;28;20047;-47
2021/10/08 12:18:03;;;;;;;9.48;8.57;;;24.30;53.70;;;;;;5082285;28;20524;-45
2021/10/08 12:20:32;;;;;;;8.48;7.53;;;25.40;51.50;;;;;;5077207;28;20080;-47
2021/10/08 12:23:23;;;;;;;8.80;7.88;;;25.80;51.30;;;;;;5088417;28;20070;-48
2021/10/08 12:25:51;;;;;;;9.07;7.43;;;26.40;49.30;;;;;;5089546;28;20055;-46
2021/10/08 12:28:20;;;;;;;8.85;7.50;;;26.70;49.60;;;;;;5073205;28;20047;-47
2021/10/08 12:30:55;;;;;;;7.88;6.75;;;26.60;49.10;;;;;;5089423;28;20048;-46
2021/10/08 12:33:31;;;;;;;8.60;7.82;;;27.30;48.50;;;;;;5089733;28;20082;-50
2021/10/08 12:36:20;;;;;;;8.70;7.43;;;27.40;46.70;;;;;;5088958;28;20068;-48
2021/10/08 12:39:09;;;;;;;7.22;6.53;;;27.30;47.20;;;;;;5088677;28;20169;-47
2021/10/08 12:41:47;;;;;;;8.10;7.30;;;27.60;47.00;;;;;;5089504;28;20052;-48
2021/10/08 12:44:18;;;;;;;8.13;7.22;;;28.30;47.90;;;;;;5089451;28;20056;-51
2021/10/08 12:49:57;;;;;;;9.80;7.13;;;27.40;44.90;;;;;;5089413;28;20075;-49